createdAt,value
2019-02-10T00:01:46.856Z,25.57
2019-02-10T00:04:15.620Z,29.70
2019-02-10T00:06:44.696Z,26.63
2019-02-10T00:09:13.544Z,26.90
2019-02-10T00:11:42.232Z,26.97
2019-02-10T00:14:11.865Z,26.63
2019-02-10T00:16:40.694Z,27.33
2019-02-10T00:19:49.592Z,25.80
2019-02-10T00:22:18.475Z,24.93
2019-02-10T00:24:47.389Z,24.93
2019-02-10T00:27:16.232Z,24.67
2019-02-10T00:29:45.188Z,25.37
2019-02-10T00:32:14.023Z,26.07
2019-02-10T00:34:48.602Z,25.83
2019-02-10T00:37:18.918Z,21.90
2019-02-10T00:39:47.588Z,25.47
2019-02-10T00:42:16.607Z,25.63
2019-02-10T00:44:45.311Z,23.97
2019-02-10T00:47:14.124Z,23.87
2019-02-10T00:49:42.928Z,25.57
2019-02-10T00:52:11.867Z,24.97
2019-02-10T00:54:40.897Z,24.87
2019-02-10T00:57:11.622Z,26.83
2019-02-10T00:59:40.293Z,15.87
2019-02-10T01:02:09.241Z,23.13
2019-02-10T01:04:38.109Z,24.80
2019-02-10T01:07:07.003Z,24.33
2019-02-10T01:09:35.790Z,24.37
2019-02-10T01:12:05.528Z,24.47
2019-02-10T01:14:34.396Z,23.93
2019-02-10T01:17:03.292Z,24.77
2019-02-10T01:19:32.022Z,23.93
2019-02-10T01:22:02.453Z,23.50
2019-02-10T01:24:31.145Z,22.93
2019-02-10T01:27:01.672Z,23.97
2019-02-10T01:29:30.628Z,23.87
2019-02-10T01:31:59.547Z,25.27
2019-02-10T01:34:28.301Z,23.80
2019-02-10T01:36:57.319Z,23.70
2019-02-10T01:39:26.844Z,24.50
2019-02-10T01:41:58.639Z,24.00
2019-02-10T01:44:27.700Z,24.43
2019-02-10T01:46:56.560Z,24.50
2019-02-10T01:49:25.369Z,25.67
2019-02-10T01:51:54.020Z,25.03
2019-02-10T01:54:23.099Z,23.27
2019-02-10T01:56:51.994Z,24.73
2019-02-10T01:59:21.660Z,25.37
2019-02-10T02:01:50.462Z,24.07
2019-02-10T02:04:19.179Z,23.83
2019-02-10T02:06:47.892Z,23.47
2019-02-10T02:09:16.665Z,23.20
2019-02-10T02:11:45.720Z,23.90
2019-02-10T02:14:14.543Z,24.13
2019-02-10T02:16:43.303Z,24.87
2019-02-10T02:19:12.177Z,26.53
2019-02-10T02:21:41.072Z,24.00
2019-02-10T02:24:09.800Z,26.40
2019-02-10T02:26:38.784Z,25.17
2019-02-10T02:29:07.540Z,25.10
2019-02-10T02:31:36.635Z,23.87
2019-02-10T02:34:05.231Z,25.03
2019-02-10T02:36:35.606Z,28.57
2019-02-10T02:39:04.908Z,24.67
2019-02-10T02:41:33.582Z,23.03
2019-02-10T02:44:02.288Z,26.17
2019-02-10T02:46:31.013Z,25.33
2019-02-10T02:48:59.766Z,23.93
2019-02-10T02:51:28.439Z,25.10
2019-02-10T02:53:57.238Z,25.60
2019-02-10T02:56:25.888Z,29.50
2019-02-10T02:58:54.649Z,22.77
2019-02-10T03:01:23.331Z,25.03
2019-02-10T03:03:52.220Z,24.23
2019-02-10T03:06:20.902Z,23.73
2019-02-10T03:08:49.771Z,24.23
2019-02-10T03:11:18.422Z,24.30
2019-02-10T03:13:47.074Z,24.50
2019-02-10T03:16:15.804Z,23.80
2019-02-10T03:18:51.932Z,24.70
2019-02-10T03:21:14.960Z,24.47
2019-02-10T03:23:43.831Z,23.40
2019-02-10T03:26:12.664Z,22.20
2019-02-10T03:28:41.566Z,23.33
2019-02-10T03:31:10.555Z,22.50
2019-02-10T03:33:39.349Z,24.40
2019-02-10T03:36:08.278Z,24.10
2019-02-10T03:38:37.072Z,22.07
2019-02-10T03:41:06.272Z,22.57
2019-02-10T03:43:35.043Z,22.47
2019-02-10T03:46:03.993Z,23.40
2019-02-10T03:48:32.669Z,23.77
2019-02-10T03:51:01.414Z,23.77
2019-02-10T03:53:30.269Z,23.03
2019-02-10T03:55:59.273Z,23.23
2019-02-10T03:58:28.253Z,24.00
2019-02-10T04:00:57.102Z,22.10
2019-02-10T04:03:27.065Z,21.30
2019-02-10T04:05:56.086Z,22.70
2019-02-10T04:08:25.074Z,21.87
2019-02-10T04:10:53.858Z,22.77
2019-02-10T04:13:22.562Z,23.07
2019-02-10T04:15:51.312Z,21.57
2019-02-10T04:18:19.978Z,24.40
2019-02-10T04:20:48.830Z,21.37
2019-02-10T04:23:19.783Z,25.73
2019-02-10T04:25:48.501Z,22.03
2019-02-10T04:28:17.306Z,21.57
2019-02-10T04:30:46.137Z,20.63
2019-02-10T04:33:14.982Z,20.77
2019-02-10T04:35:43.880Z,19.90
2019-02-10T04:38:12.830Z,21.23
2019-02-10T04:40:41.659Z,21.10
2019-02-10T04:43:10.589Z,21.63
2019-02-10T04:45:39.641Z,20.80
2019-02-10T04:48:08.549Z,20.73
2019-02-10T04:50:37.436Z,20.93
2019-02-10T04:53:06.362Z,20.53
2019-02-10T04:55:35.340Z,20.53
2019-02-10T04:58:06.259Z,21.63
2019-02-10T05:00:35.349Z,19.63
2019-02-10T05:03:04.348Z,21.93
2019-02-10T05:05:33.324Z,19.37
2019-02-10T05:08:02.091Z,19.10
2019-02-10T05:10:31.204Z,20.83
2019-02-10T05:13:00.120Z,20.07
2019-02-10T05:15:28.934Z,21.47
2019-02-10T05:17:57.911Z,20.17
2019-02-10T05:20:26.565Z,19.20
2019-02-10T05:22:55.393Z,22.20
2019-02-10T05:25:24.141Z,18.00
2019-02-10T05:27:52.831Z,18.17
2019-02-10T05:30:21.698Z,20.47
2019-02-10T05:32:52.246Z,20.07
2019-02-10T05:35:21.004Z,19.83
2019-02-10T05:37:49.822Z,19.80
2019-02-10T05:40:18.588Z,20.47
2019-02-10T05:42:47.361Z,19.40
2019-02-10T05:45:16.126Z,20.80
2019-02-10T05:47:45.113Z,19.57
2019-02-10T05:50:13.864Z,19.10
2019-02-10T05:52:42.546Z,19.97
2019-02-10T05:55:11.342Z,18.73
2019-02-10T05:57:40.623Z,18.73
2019-02-10T06:00:11.261Z,18.10
2019-02-10T06:02:39.999Z,18.87
2019-02-10T06:05:12.511Z,17.97
2019-02-10T06:07:41.402Z,18.57
2019-02-10T06:10:11.703Z,19.57
2019-02-10T06:12:40.678Z,18.17
2019-02-10T06:15:11.511Z,18.60
2019-02-10T06:17:40.325Z,19.33
2019-02-10T06:20:10.984Z,19.03
2019-02-10T06:22:39.843Z,20.33
2019-02-10T06:25:09.345Z,17.97
2019-02-10T06:27:38.124Z,17.70
2019-02-10T06:30:09.905Z,18.50
2019-02-10T06:32:38.676Z,19.33
2019-02-10T06:35:09.274Z,21.53
2019-02-10T06:37:37.994Z,18.90
2019-02-10T06:40:08.630Z,18.70
2019-02-10T06:42:37.434Z,20.40
2019-02-10T06:45:09.116Z,18.43
2019-02-10T06:47:38.179Z,17.90
2019-02-10T06:50:07.995Z,19.57
2019-02-10T06:52:36.903Z,18.27
2019-02-10T06:55:08.272Z,16.77
2019-02-10T06:57:37.314Z,18.07
2019-02-10T07:00:11.591Z,17.13
2019-02-10T07:03:17.559Z,18.67
2019-02-10T07:05:46.683Z,18.30
2019-02-10T07:08:18.304Z,18.30
2019-02-10T07:10:47.248Z,16.97
2019-02-10T07:13:19.232Z,18.80
2019-02-10T07:16:24.516Z,17.13
2019-02-10T07:19:29.732Z,18.10
2019-02-10T07:21:58.586Z,19.60
2019-02-10T07:24:33.040Z,18.27
2019-02-10T07:27:17.119Z,18.93
2019-02-10T07:29:57.828Z,19.10
2019-02-10T07:32:29.704Z,20.53
2019-02-10T07:35:20.508Z,19.53
2019-02-10T07:38:06.912Z,19.43
2019-02-10T07:40:44.504Z,19.37
2019-02-10T07:43:34.316Z,19.60
2019-02-10T07:46:09.202Z,16.73
2019-02-10T07:49:02.185Z,17.70
2019-02-10T07:51:36.606Z,17.30
2019-02-10T07:54:29.574Z,22.20
2019-02-10T07:57:07.235Z,18.97
2019-02-10T07:59:41.738Z,18.43
2019-02-10T08:02:34.516Z,19.13
2019-02-10T08:05:26.415Z,21.20
2019-02-10T08:08:17.629Z,21.20
2019-02-10T08:11:04.586Z,14.20
2019-02-10T08:14:00.507Z,22.33
2019-02-10T08:16:32.246Z,20.03
2019-02-10T08:19:22.415Z,21.90
2019-02-10T08:21:56.961Z,18.77
2019-02-10T08:24:40.573Z,18.23
2019-02-10T08:27:24.155Z,18.70
2019-02-10T08:29:59.020Z,17.47
2019-02-10T08:32:42.674Z,17.00
2019-02-10T08:35:30.800Z,15.40
2019-02-10T08:38:26.900Z,18.43
2019-02-10T08:41:18.617Z,18.50
2019-02-10T08:44:24.002Z,20.67
2019-02-10T08:47:33.584Z,18.50
2019-02-10T08:50:33.204Z,18.77
2019-02-10T08:53:26.904Z,18.97
2019-02-10T08:55:55.564Z,18.70
2019-02-10T09:01:30.406Z,17.80
2019-02-10T09:04:23.786Z,18.70
2019-02-10T09:07:06.007Z,18.93
2019-02-10T09:09:41.134Z,17.40
2019-02-10T09:12:05.626Z,17.57
2019-02-10T09:14:34.413Z,17.83
2019-02-10T09:17:04.857Z,16.30
2019-02-10T09:19:36.590Z,17.63
2019-02-10T09:22:05.390Z,15.73
2019-02-10T09:24:34.174Z,15.60
2019-02-10T09:27:02.989Z,15.77
2019-02-10T09:29:32.988Z,16.60
2019-02-10T09:32:04.520Z,15.50
2019-02-10T09:34:33.602Z,15.63
2019-02-10T09:37:03.241Z,16.13
2019-02-10T09:39:32.092Z,17.40
2019-02-10T09:42:01.060Z,15.80
2019-02-10T09:44:30.007Z,15.47
2019-02-10T09:46:58.835Z,14.23
2019-02-10T09:49:27.905Z,13.47
2019-02-10T09:51:56.693Z,15.43
2019-02-10T09:54:25.579Z,14.33
2019-02-10T09:56:56.892Z,14.43
2019-02-10T09:59:25.694Z,14.27
2019-02-10T10:01:54.519Z,13.57
2019-02-10T10:04:23.707Z,14.70
2019-02-10T10:06:52.430Z,14.20
2019-02-10T10:09:24.156Z,13.90
2019-02-10T10:11:52.987Z,14.00
2019-02-10T10:14:21.827Z,12.73
2019-02-10T10:16:50.714Z,13.80
2019-02-10T10:19:19.599Z,12.77
2019-02-10T10:21:48.393Z,11.77
2019-02-10T10:24:17.092Z,15.73
2019-02-10T10:26:45.877Z,14.43
2019-02-10T10:29:14.791Z,11.80
2019-02-10T10:31:43.595Z,12.80
2019-02-10T10:34:12.478Z,14.50
2019-02-10T10:36:44.362Z,12.60
2019-02-10T10:39:13.403Z,13.27
2019-02-10T10:41:45.065Z,13.30
2019-02-10T10:44:13.826Z,13.13
2019-02-10T10:46:43.306Z,11.97
2019-02-10T10:49:18.565Z,14.90
2019-02-10T10:51:47.459Z,13.83
2019-02-10T10:54:17.675Z,13.27
2019-02-10T10:56:46.478Z,13.80
2019-02-10T10:59:15.536Z,12.30
2019-02-10T11:01:49.705Z,12.23
2019-02-10T11:04:18.848Z,11.10
2019-02-10T11:06:53.321Z,13.23
2019-02-10T11:09:22.132Z,13.17
2019-02-10T11:11:52.032Z,12.87
2019-02-10T11:14:21.044Z,11.70
2019-02-10T11:16:55.958Z,12.00
2019-02-10T11:19:29.969Z,13.77
2019-02-10T11:21:58.977Z,12.03
2019-02-10T11:24:28.931Z,12.20
2019-02-10T11:27:04.526Z,10.17
2019-02-10T11:29:33.417Z,10.07
2019-02-10T11:32:03.328Z,10.67
2019-02-10T11:34:32.079Z,10.00
2019-02-10T11:37:01.116Z,10.20
2019-02-10T11:39:34.264Z,10.30
2019-02-10T11:42:03.224Z,12.13
2019-02-10T11:44:38.990Z,11.50
2019-02-10T11:47:08.138Z,11.43
2019-02-10T11:49:36.959Z,9.50
2019-02-10T11:52:05.829Z,10.80
2019-02-10T11:54:34.677Z,10.80
2019-02-10T11:57:03.668Z,10.90
2019-02-10T11:59:32.271Z,10.27
2019-02-10T12:02:01.125Z,10.80
2019-02-10T12:04:30.017Z,11.87
2019-02-10T12:06:58.848Z,11.57
2019-02-10T12:09:27.660Z,11.30
2019-02-10T12:11:56.498Z,11.47
2019-02-10T12:14:25.306Z,12.40
2019-02-10T12:16:54.521Z,10.87
2019-02-10T12:19:25.490Z,10.80
2019-02-10T12:21:54.596Z,12.90
2019-02-10T12:24:23.553Z,11.50
2019-02-10T12:26:52.349Z,10.40
2019-02-10T12:29:21.273Z,12.07
2019-02-10T12:31:57.618Z,11.10
2019-02-10T12:34:26.421Z,12.03
2019-02-10T12:36:55.170Z,10.20
2019-02-10T12:39:23.988Z,10.17
2019-02-10T12:41:52.944Z,12.00
2019-02-10T12:44:21.863Z,9.83
2019-02-10T12:46:50.686Z,11.47
2019-02-10T12:49:19.909Z,12.00
2019-02-10T12:51:48.606Z,12.47
2019-02-10T12:54:17.493Z,12.80
2019-02-10T12:56:46.478Z,12.27
2019-02-10T12:59:15.375Z,11.17
2019-02-10T13:01:46.789Z,9.77
2019-02-10T13:04:15.492Z,10.93
2019-02-10T13:06:44.176Z,12.10
2019-02-10T13:09:13.653Z,13.53
2019-02-10T13:11:43.587Z,11.77
2019-02-10T13:14:12.373Z,10.73
2019-02-10T13:16:52.168Z,14.47
2019-02-10T13:19:18.747Z,12.53
2019-02-10T13:21:47.823Z,11.47
2019-02-10T13:24:18.347Z,12.63
2019-02-10T13:26:47.240Z,12.20
2019-02-10T13:29:16.186Z,12.23
2019-02-10T13:31:45.059Z,13.37
2019-02-10T13:34:13.847Z,14.00
2019-02-10T13:36:43.323Z,14.20
2019-02-10T13:39:13.755Z,14.43
2019-02-10T13:41:44.523Z,13.53
2019-02-10T13:44:17.555Z,15.40
2019-02-10T13:46:48.097Z,15.40
2019-02-10T13:49:16.929Z,14.60
2019-02-10T13:51:45.757Z,14.73
2019-02-10T13:54:14.555Z,13.93
2019-02-10T13:56:43.626Z,12.33
2019-02-10T13:59:26.026Z,15.87
2019-02-10T14:02:25.851Z,14.37
2019-02-10T14:04:44.913Z,14.17
2019-02-10T14:07:15.878Z,14.43
2019-02-10T14:13:31.689Z,14.83
2019-02-10T14:28:26.694Z,14.40
2019-02-10T14:28:59.358Z,14.73
2019-02-10T14:31:03.775Z,15.23
2019-02-10T14:33:45.118Z,15.43
2019-02-10T14:38:00.398Z,17.87
2019-02-10T14:39:10.782Z,15.10
2019-02-10T14:41:41.900Z,13.67
2019-02-10T14:44:12.264Z,16.57
2019-02-10T14:46:54.166Z,16.07
2019-02-10T14:49:26.975Z,15.33
2019-02-10T14:51:59.409Z,16.23
2019-02-10T14:54:30.140Z,15.80
2019-02-10T14:57:01.100Z,18.27
2019-02-10T14:59:29.733Z,18.03
2019-02-10T15:01:58.756Z,16.63
2019-02-10T15:04:35.504Z,17.50
2019-02-10T15:07:09.821Z,18.63
2019-02-10T15:09:42.986Z,17.77
2019-02-10T15:12:12.403Z,11.30
2019-02-10T15:17:44.659Z,18.57
2019-02-10T15:20:09.722Z,12.00
2019-02-10T15:22:43.091Z,18.13
2019-02-10T15:25:14.479Z,19.93
2019-02-10T15:27:43.380Z,19.67
2019-02-10T15:30:15.934Z,17.90
2019-02-10T15:32:44.538Z,20.67
2019-02-10T15:35:13.772Z,20.37
2019-02-10T15:37:42.787Z,21.27
2019-02-10T15:40:18.598Z,20.93
2019-02-10T15:42:57.796Z,19.60
2019-02-10T15:45:24.546Z,19.27
2019-02-10T15:47:53.451Z,22.77
2019-02-10T15:50:23.953Z,22.73
2019-02-10T15:52:53.152Z,20.40
2019-02-10T15:55:25.112Z,24.93
2019-02-10T15:57:52.966Z,26.13
2019-02-10T16:00:29.270Z,24.63
2019-02-10T16:03:00.314Z,23.33
2019-02-10T16:05:28.860Z,23.93
2019-02-10T16:08:00.452Z,25.23
2019-02-10T16:10:29.309Z,25.03
2019-02-10T16:13:00.756Z,26.10
2019-02-10T16:15:33.063Z,24.63
2019-02-10T16:18:02.014Z,27.90
2019-02-10T16:20:31.010Z,25.30
2019-02-10T16:23:03.088Z,27.97
2019-02-10T16:28:24.517Z,26.30
2019-02-10T16:31:02.144Z,28.03
2019-02-10T16:37:05.455Z,27.67
2019-02-10T16:42:49.072Z,27.90
2019-02-10T16:55:08.716Z,24.77
2019-02-10T16:56:33.852Z,24.67
2019-02-10T16:59:05.661Z,27.03
2019-02-10T17:04:56.622Z,24.20
2019-02-10T17:07:48.180Z,21.60
2019-02-10T17:13:19.831Z,25.03
2019-02-10T17:16:22.238Z,25.67
2019-02-10T17:18:42.033Z,24.20
2019-02-10T17:21:19.692Z,25.57
2019-02-10T17:23:35.243Z,24.73
2019-02-10T17:26:28.603Z,25.83
2019-02-10T17:28:41.226Z,28.00
2019-02-10T17:31:28.632Z,24.43
2019-02-10T17:34:06.724Z,27.30
2019-02-10T17:36:36.174Z,25.60
2019-02-10T17:39:36.795Z,25.00
2019-02-10T17:42:06.233Z,23.77
2019-02-10T17:44:43.728Z,25.60
2019-02-10T17:50:10.691Z,24.20
2019-02-10T17:52:41.455Z,24.13
2019-02-10T17:55:12.152Z,25.60
2019-02-10T17:57:47.823Z,25.83
2019-02-10T18:00:20.941Z,25.53
2019-02-10T18:02:49.964Z,24.83
2019-02-10T18:05:37.240Z,24.13
2019-02-10T18:08:01.858Z,26.63
2019-02-10T18:10:32.985Z,25.47
2019-02-10T18:13:02.060Z,25.70
2019-02-10T18:15:56.746Z,26.57
2019-02-10T18:18:45.812Z,23.97
2019-02-10T18:21:35.902Z,26.27
2019-02-10T18:24:13.793Z,24.67
2019-02-10T18:26:49.720Z,28.07
2019-02-10T18:29:36.504Z,25.03
2019-02-10T18:32:15.034Z,29.37
2019-02-10T18:34:45.305Z,28.00
2019-02-10T18:37:27.800Z,26.97
2019-02-10T18:40:14.290Z,27.83
2019-02-10T18:42:47.816Z,23.37
2019-02-10T18:45:45.476Z,25.87
2019-02-10T18:48:21.952Z,20.90
2019-02-10T18:52:19.004Z,22.57
2019-02-10T18:54:32.777Z,28.37
2019-02-10T19:42:31.152Z,27.37
2019-02-10T19:45:09.169Z,23.60
2019-02-10T19:48:11.242Z,22.70
2019-02-10T19:54:56.424Z,25.70
2019-02-10T19:57:03.361Z,29.97
2019-02-10T20:05:53.335Z,29.30
2019-02-10T20:09:53.963Z,26.40
2019-02-10T20:15:07.255Z,28.30
2019-02-10T20:30:12.264Z,26.97
2019-02-10T20:38:52.452Z,27.43
2019-02-10T20:39:39.264Z,27.60
2019-02-10T20:41:30.477Z,29.80
2019-02-10T20:47:46.916Z,28.90
2019-02-10T20:53:50.040Z,29.63
2019-02-10T21:22:27.075Z,29.13
2019-02-10T21:32:32.039Z,30.07
2019-02-10T21:59:48.838Z,34.60
2019-02-10T22:05:38.970Z,30.23
2019-02-10T22:08:19.594Z,25.87
2019-02-10T22:11:34.735Z,26.20
2019-02-10T22:13:55.503Z,28.53
2019-02-10T22:16:38.670Z,31.33
2019-02-10T22:25:09.615Z,29.87
2019-02-10T22:28:45.156Z,30.50
2019-02-10T22:31:22.082Z,29.10
2019-02-10T22:34:17.034Z,31.47
2019-02-10T22:36:49.589Z,30.97
2019-02-10T22:39:18.613Z,31.10
2019-02-10T22:41:48.676Z,30.10
2019-02-10T22:44:20.163Z,30.70
2019-02-10T22:47:03.191Z,30.23
2019-02-10T22:49:37.341Z,29.33
2019-02-10T22:52:26.113Z,29.60
2019-02-10T22:55:04.692Z,29.87
2019-02-10T22:57:33.526Z,29.17
2019-02-10T23:00:04.179Z,28.90
2019-02-10T23:02:33.076Z,29.80
2019-02-10T23:05:01.934Z,28.93
2019-02-10T23:07:30.748Z,29.60
2019-02-10T23:09:59.865Z,28.37
2019-02-10T23:12:28.666Z,26.70
2019-02-10T23:14:57.383Z,28.80
2019-02-10T23:17:27.843Z,30.00
2019-02-10T23:19:56.760Z,28.30
2019-02-10T23:22:25.472Z,29.73
2019-02-10T23:24:54.240Z,30.07
2019-02-10T23:27:23.041Z,29.93
2019-02-10T23:29:54.551Z,28.47
2019-02-10T23:32:23.427Z,28.27
2019-02-10T23:34:52.178Z,27.67
2019-02-10T23:37:21.573Z,31.37
2019-02-10T23:39:50.452Z,28.67
2019-02-10T23:42:19.256Z,27.97
2019-02-10T23:44:48.227Z,28.37
2019-02-10T23:47:17.014Z,31.20
2019-02-10T23:49:45.921Z,26.73
2019-02-10T23:52:14.794Z,29.10
2019-02-10T23:54:43.609Z,29.53
2019-02-10T23:57:12.396Z,25.37
2019-02-10T23:59:41.286Z,27.20
